createdAt,value
2023-05-12T00:00:52.530Z,15.12
2023-05-12T00:03:24.551Z,15.11
2023-05-12T00:06:03.522Z,15.09
2023-05-12T00:08:35.519Z,15.09
2023-05-12T00:11:07.494Z,15.07
2023-05-12T00:13:40.094Z,15.07
2023-05-12T00:16:16.156Z,15.03
2023-05-12T00:18:52.310Z,15.03
2023-05-12T00:21:24.348Z,14.98
2023-05-12T00:23:56.602Z,14.93
2023-05-12T00:26:30.940Z,14.92
2023-05-12T00:29:03.323Z,14.93
2023-05-12T00:31:35.576Z,14.93
2023-05-12T00:34:07.489Z,14.92
2023-05-12T00:36:40.205Z,14.90
2023-05-12T00:39:12.339Z,14.87
2023-05-12T00:41:44.539Z,14.84
2023-05-12T00:44:18.477Z,14.82
2023-05-12T00:46:50.884Z,14.80
2023-05-12T00:49:23.353Z,14.77
2023-05-12T00:51:56.106Z,14.76
2023-05-12T00:54:31.672Z,14.70
2023-05-12T00:57:03.833Z,14.66
2023-05-12T00:59:37.637Z,14.64
2023-05-12T01:02:14.514Z,14.59
2023-05-12T01:04:50.312Z,14.56
2023-05-12T01:07:24.739Z,14.54
2023-05-12T01:10:00.392Z,14.50
2023-05-12T01:12:38.540Z,14.47
2023-05-12T01:15:11.253Z,14.45
2023-05-12T01:17:53.730Z,14.40
2023-05-12T01:20:27.039Z,14.38
2023-05-12T01:23:00.989Z,14.32
2023-05-12T01:25:34.587Z,14.29
2023-05-12T01:28:08.066Z,14.28
2023-05-12T01:30:43.826Z,14.23
2023-05-12T01:33:17.644Z,14.19
2023-05-12T01:35:49.502Z,14.13
2023-05-12T01:38:23.334Z,14.07
2023-05-12T01:40:55.452Z,14.02
2023-05-12T01:43:27.471Z,13.97
2023-05-12T01:45:59.358Z,13.92
2023-05-12T01:48:31.617Z,13.88
2023-05-12T01:51:07.586Z,13.82
2023-05-12T01:53:39.374Z,13.77
2023-05-12T01:56:11.224Z,13.73
2023-05-12T01:58:43.827Z,13.66
2023-05-12T02:01:15.913Z,13.59
2023-05-12T02:03:48.789Z,13.53
2023-05-12T02:06:21.549Z,13.47
2023-05-12T02:08:53.925Z,13.43
2023-05-12T02:11:29.585Z,13.37
2023-05-12T02:14:03.409Z,13.28
2023-05-12T02:16:36.421Z,13.20
2023-05-12T02:19:08.997Z,13.16
2023-05-12T02:21:40.905Z,13.10
2023-05-12T02:24:14.803Z,13.04
2023-05-12T02:26:51.076Z,12.97
2023-05-12T02:29:23.228Z,12.90
2023-05-12T02:31:57.947Z,12.87
2023-05-12T02:34:29.710Z,12.84
2023-05-12T02:37:04.312Z,12.83
2023-05-12T02:39:36.262Z,12.78
2023-05-12T02:42:08.062Z,12.74
2023-05-12T02:44:39.793Z,12.72
2023-05-12T02:47:11.714Z,12.70
2023-05-12T02:49:46.919Z,12.66
2023-05-12T02:52:19.558Z,12.64
2023-05-12T02:54:54.880Z,12.60
2023-05-12T02:57:32.967Z,12.56
2023-05-12T03:00:06.747Z,12.51
2023-05-12T03:02:42.261Z,12.46
2023-05-12T03:05:14.106Z,12.41
2023-05-12T03:07:48.650Z,12.37
2023-05-12T03:10:20.672Z,12.35
2023-05-12T03:12:55.218Z,12.28
2023-05-12T03:15:30.005Z,12.27
2023-05-12T03:18:01.757Z,12.26
2023-05-12T03:20:34.793Z,12.24
2023-05-12T03:23:06.557Z,12.21
2023-05-12T03:25:38.410Z,12.21
2023-05-12T03:28:10.317Z,12.21
2023-05-12T03:30:42.226Z,12.20
2023-05-12T03:33:14.182Z,12.19
2023-05-12T03:35:45.998Z,12.18
2023-05-12T03:38:17.747Z,12.17
2023-05-12T03:41:06.556Z,12.17
2023-05-12T03:43:40.935Z,12.18
2023-05-12T03:46:14.382Z,12.19
2023-05-12T03:48:49.217Z,12.19
2023-05-12T03:51:21.020Z,12.16
2023-05-12T03:53:52.917Z,12.17
2023-05-12T03:56:25.071Z,12.23
2023-05-12T03:58:57.189Z,12.29
2023-05-12T04:01:29.078Z,12.37
2023-05-12T04:04:00.969Z,12.41
2023-05-12T04:06:37.432Z,12.44
2023-05-12T04:09:10.005Z,12.52
2023-05-12T04:11:41.780Z,12.58
2023-05-12T04:14:13.682Z,12.64
2023-05-12T04:16:45.791Z,12.73
2023-05-12T04:19:18.083Z,12.82
2023-05-12T04:21:52.690Z,12.90
2023-05-12T04:24:25.555Z,13.00
2023-05-12T04:26:57.861Z,13.07
2023-05-12T04:29:30.054Z,13.17
2023-05-12T04:32:01.951Z,13.29
2023-05-12T04:34:34.599Z,13.44
2023-05-12T04:37:10.114Z,13.59
2023-05-12T04:39:42.163Z,13.75
2023-05-12T04:42:14.328Z,13.92
2023-05-12T04:44:46.779Z,14.09
2023-05-12T04:47:19.266Z,14.24
2023-05-12T04:49:54.262Z,14.39
2023-05-12T04:52:27.864Z,14.55
2023-05-12T04:55:02.751Z,14.71
2023-05-12T04:57:34.495Z,14.88
2023-05-12T05:00:09.928Z,15.05
2023-05-12T05:02:42.684Z,15.26
2023-05-12T05:05:14.479Z,15.50
2023-05-12T05:07:46.223Z,15.70
2023-05-12T05:10:18.520Z,15.87
2023-05-12T05:12:50.501Z,16.05
2023-05-12T05:15:26.867Z,16.23
2023-05-12T05:18:02.443Z,16.33
2023-05-12T05:20:34.935Z,16.55
2023-05-12T05:23:07.220Z,16.70
2023-05-12T05:25:40.576Z,16.81
2023-05-12T05:28:12.524Z,17.07
2023-05-12T05:30:44.583Z,17.40
2023-05-12T05:33:18.426Z,17.54
2023-05-12T05:35:51.194Z,17.84
2023-05-12T05:38:24.329Z,18.08
2023-05-12T05:40:56.314Z,18.27
2023-05-12T05:43:31.051Z,18.47
2023-05-12T05:46:09.568Z,18.77
2023-05-12T05:48:41.988Z,18.94
2023-05-12T05:51:15.380Z,19.07
2023-05-12T05:53:48.148Z,19.11
2023-05-12T05:56:23.097Z,19.22
2023-05-12T05:58:55.599Z,19.04
2023-05-12T06:01:27.508Z,18.95
2023-05-12T06:03:59.304Z,18.89
2023-05-12T06:06:31.497Z,18.66
2023-05-12T06:09:08.353Z,18.55
2023-05-12T06:11:40.078Z,18.60
2023-05-12T06:14:11.869Z,18.61
2023-05-12T06:16:46.768Z,18.83
2023-05-12T06:19:18.844Z,18.90
2023-05-12T06:21:52.677Z,19.02
2023-05-12T06:24:24.413Z,19.12
2023-05-12T06:26:59.861Z,19.27
2023-05-12T06:29:31.597Z,19.51
2023-05-12T06:32:06.096Z,19.44
2023-05-12T06:34:37.735Z,19.43
2023-05-12T06:37:09.484Z,19.51
2023-05-12T06:39:41.556Z,19.78
2023-05-12T06:42:13.429Z,19.95
2023-05-12T06:44:46.994Z,20.07
2023-05-12T06:47:18.846Z,20.41
2023-05-12T06:49:50.675Z,20.54
2023-05-12T06:52:25.239Z,20.74
2023-05-12T06:54:59.738Z,20.98
2023-05-12T06:57:31.325Z,21.22
2023-05-12T07:00:04.917Z,21.23
2023-05-12T07:02:37.190Z,21.46
2023-05-12T07:05:09.064Z,21.53
2023-05-12T07:07:43.402Z,21.44
2023-05-12T07:10:15.122Z,21.34
2023-05-12T07:12:47.535Z,21.40
2023-05-12T07:15:22.644Z,21.50
2023-05-12T07:17:55.901Z,21.76
2023-05-12T07:20:28.109Z,21.59
2023-05-12T07:22:59.867Z,21.63
2023-05-12T07:25:32.038Z,21.62
2023-05-12T07:28:03.934Z,21.85
2023-05-12T07:30:36.438Z,22.12
2023-05-12T07:33:08.705Z,21.98
2023-05-12T07:35:46.050Z,21.74
2023-05-12T07:38:17.924Z,21.82
2023-05-12T07:40:51.098Z,22.01
2023-05-12T07:43:25.521Z,22.09
2023-05-12T07:45:59.621Z,22.15
2023-05-12T07:48:31.411Z,22.18
2023-05-12T07:51:04.095Z,22.20
2023-05-12T07:53:38.919Z,22.50
2023-05-12T07:56:11.057Z,22.56
2023-05-12T07:58:42.797Z,22.55
2023-05-12T08:01:15.242Z,22.56
2023-05-12T08:03:47.304Z,22.71
2023-05-12T08:06:19.843Z,22.78
2023-05-12T08:08:51.682Z,23.08
2023-05-12T08:11:23.473Z,22.85
2023-05-12T08:13:55.418Z,22.83
2023-05-12T08:16:30.220Z,23.05
2023-05-12T08:19:02.292Z,23.13
2023-05-12T08:21:34.478Z,23.32
2023-05-12T08:24:09.436Z,23.46
2023-05-12T08:26:41.143Z,23.52
2023-05-12T08:29:15.097Z,23.56
2023-05-12T08:31:46.846Z,23.79
2023-05-12T08:34:18.685Z,23.93
2023-05-12T08:36:52.639Z,24.05
2023-05-12T08:39:24.534Z,23.91
2023-05-12T08:42:31.516Z,23.85
2023-05-12T08:45:04.360Z,23.96
2023-05-12T08:47:39.639Z,23.84
2023-05-12T08:50:12.870Z,23.96
2023-05-12T08:52:44.779Z,23.74
2023-05-12T08:55:18.641Z,23.23
2023-05-12T08:57:50.745Z,23.26
2023-05-12T09:00:25.988Z,22.91
2023-05-12T09:03:04.411Z,22.97
2023-05-12T09:05:36.920Z,22.81
2023-05-12T09:08:12.900Z,22.51
2023-05-12T09:10:45.283Z,22.31
2023-05-12T09:13:23.852Z,22.19
2023-05-12T09:15:59.295Z,22.13
2023-05-12T09:18:51.436Z,22.27
2023-05-12T09:21:25.080Z,22.46
2023-05-12T09:24:01.222Z,22.48
2023-05-12T09:26:44.887Z,22.67
2023-05-12T09:29:29.992Z,22.67
2023-05-12T09:32:08.113Z,22.65
2023-05-12T09:34:41.549Z,22.46
2023-05-12T09:37:15.488Z,22.25
2023-05-12T09:39:47.327Z,22.32
2023-05-12T09:42:22.001Z,22.39
2023-05-12T09:44:53.782Z,22.55
2023-05-12T09:47:31.994Z,22.62
2023-05-12T09:50:07.123Z,22.80
2023-05-12T09:52:39.721Z,22.55
2023-05-12T09:55:13.395Z,22.59
2023-05-12T09:57:46.780Z,22.71
2023-05-12T10:00:33.247Z,22.78
2023-05-12T10:03:15.715Z,23.04
2023-05-12T10:05:54.354Z,23.12
2023-05-12T10:08:34.807Z,22.93
2023-05-12T10:11:09.800Z,22.82
2023-05-12T10:13:42.151Z,23.11
2023-05-12T10:16:14.962Z,23.07
2023-05-12T10:18:47.618Z,22.96
2023-05-12T10:21:24.532Z,22.93
2023-05-12T10:23:58.038Z,22.72
2023-05-12T10:26:32.793Z,22.94
2023-05-12T10:29:04.718Z,23.20
2023-05-12T10:31:40.516Z,23.31
2023-05-12T10:34:18.707Z,23.04
2023-05-12T10:36:54.045Z,22.74
2023-05-12T10:39:30.091Z,22.60
2023-05-12T10:42:06.499Z,22.41
2023-05-12T10:44:51.123Z,21.94
2023-05-12T10:47:36.036Z,21.60
2023-05-12T10:50:08.661Z,21.54
2023-05-12T10:52:52.807Z,21.34
2023-05-12T10:55:45.660Z,21.09
2023-05-12T10:58:18.139Z,21.04
2023-05-12T11:00:51.804Z,20.68
2023-05-12T11:03:25.785Z,20.64
2023-05-12T11:06:04.916Z,20.67
2023-05-12T11:08:37.905Z,20.80
2023-05-12T11:11:11.035Z,20.97
2023-05-12T11:13:43.456Z,20.96
2023-05-12T11:16:15.251Z,20.98
2023-05-12T11:18:48.730Z,21.31
2023-05-12T11:21:20.582Z,21.39
2023-05-12T11:23:53.020Z,21.25
2023-05-12T11:26:36.573Z,21.20
2023-05-12T11:29:09.546Z,21.09
2023-05-12T11:31:41.638Z,21.31
2023-05-12T11:34:13.728Z,21.50
2023-05-12T11:36:45.560Z,21.54
2023-05-12T11:39:28.536Z,21.65
2023-05-12T11:42:13.469Z,21.81
2023-05-12T11:44:50.553Z,22.10
2023-05-12T11:47:22.551Z,22.36
2023-05-12T11:49:55.376Z,22.42
2023-05-12T11:52:27.425Z,22.16
2023-05-12T11:55:00.723Z,22.12
2023-05-12T11:57:39.518Z,21.83
2023-05-12T12:00:12.104Z,21.75
2023-05-12T12:02:46.973Z,21.60
2023-05-12T12:05:21.703Z,21.35
2023-05-12T12:08:04.870Z,21.20
2023-05-12T12:10:36.690Z,21.29
2023-05-12T12:13:08.537Z,21.24
2023-05-12T12:15:42.315Z,21.19
2023-05-12T12:18:14.172Z,21.33
2023-05-12T12:20:47.208Z,21.54
2023-05-12T12:23:19.210Z,21.75
2023-05-12T12:25:50.930Z,21.60
2023-05-12T12:28:22.710Z,21.52
2023-05-12T12:30:54.457Z,21.21
2023-05-12T12:33:26.709Z,21.07
2023-05-12T12:35:58.477Z,20.95
2023-05-12T12:38:32.499Z,20.90
2023-05-12T12:41:05.182Z,21.03
2023-05-12T12:43:37.003Z,21.13
2023-05-12T12:46:08.760Z,21.16
2023-05-12T12:48:40.519Z,21.23
2023-05-12T12:51:12.270Z,21.14
2023-05-12T12:53:45.774Z,20.92
2023-05-12T12:56:23.754Z,20.84
2023-05-12T12:58:56.826Z,20.91
2023-05-12T13:01:28.795Z,20.66
2023-05-12T13:04:00.601Z,20.53
2023-05-12T13:06:32.346Z,20.53
2023-05-12T13:09:04.441Z,20.42
2023-05-12T13:11:36.236Z,20.40
2023-05-12T13:14:08.333Z,20.40
2023-05-12T13:16:40.170Z,20.28
2023-05-12T13:19:12.326Z,20.42
2023-05-12T13:21:44.504Z,20.39
2023-05-12T13:24:16.306Z,20.40
2023-05-12T13:26:48.287Z,20.50
2023-05-12T13:29:20.210Z,20.58
2023-05-12T13:31:51.981Z,20.63
2023-05-12T13:34:26.583Z,20.69
2023-05-12T13:36:58.296Z,20.82
2023-05-12T13:39:30.164Z,20.98
2023-05-12T13:42:04.536Z,21.01
2023-05-12T13:44:39.494Z,21.05
2023-05-12T13:47:11.336Z,21.17
2023-05-12T13:49:43.549Z,21.36
2023-05-12T13:52:15.896Z,21.38
2023-05-12T13:54:47.666Z,21.45
2023-05-12T13:57:24.574Z,21.33
2023-05-12T13:59:57.933Z,21.47
2023-05-12T14:02:31.798Z,21.46
2023-05-12T14:05:04.158Z,21.20
2023-05-12T14:07:35.936Z,21.21
2023-05-12T14:10:08.014Z,21.16
2023-05-12T14:12:41.389Z,21.13
2023-05-12T14:15:26.609Z,20.91
2023-05-12T14:18:01.569Z,20.69
2023-05-12T14:20:34.420Z,20.60
2023-05-12T14:23:06.354Z,20.37
2023-05-12T14:25:38.118Z,20.32
2023-05-12T14:28:09.982Z,20.27
2023-05-12T14:30:43.622Z,20.28
2023-05-12T14:33:15.747Z,20.10
2023-05-12T14:35:55.693Z,20.00
2023-05-12T14:38:31.342Z,19.70
2023-05-12T14:41:09.735Z,19.73
2023-05-12T14:43:44.396Z,19.78
2023-05-12T14:46:16.456Z,19.68
2023-05-12T14:48:48.896Z,19.69
2023-05-12T14:51:20.833Z,19.69
2023-05-12T14:53:52.600Z,19.54
2023-05-12T14:56:25.546Z,19.57
2023-05-12T14:58:57.361Z,19.56
2023-05-12T15:01:29.261Z,19.59
2023-05-12T15:04:01.689Z,19.51
2023-05-12T15:06:33.785Z,19.42
2023-05-12T15:09:09.720Z,19.40
2023-05-12T15:11:44.542Z,19.32
2023-05-12T15:14:25.648Z,19.11
2023-05-12T15:16:59.965Z,19.06
2023-05-12T15:19:31.736Z,18.97
2023-05-12T15:22:03.607Z,18.89
2023-05-12T15:24:35.309Z,18.87
2023-05-12T15:27:07.882Z,18.88
2023-05-12T15:29:41.069Z,18.87
2023-05-12T15:32:12.955Z,18.72
2023-05-12T15:34:44.720Z,18.64
2023-05-12T15:37:18.268Z,18.64
2023-05-12T15:39:51.181Z,18.67
2023-05-12T15:42:32.306Z,18.60
2023-05-12T15:45:04.898Z,18.54
2023-05-12T15:47:36.778Z,18.54
2023-05-12T15:50:11.584Z,18.55
2023-05-12T15:52:43.383Z,18.57
2023-05-12T15:55:16.812Z,18.50
2023-05-12T15:57:48.622Z,18.54
2023-05-12T16:00:25.205Z,18.50
2023-05-12T16:02:58.956Z,18.49
2023-05-12T16:05:31.933Z,18.29
2023-05-12T16:08:06.669Z,18.48
2023-05-12T16:10:38.363Z,18.62
2023-05-12T16:13:10.153Z,18.70
2023-05-12T16:15:41.840Z,18.66
2023-05-12T16:18:13.818Z,18.52
2023-05-12T16:20:49.718Z,18.52
2023-05-12T16:26:21.664Z,18.28
2023-05-12T16:28:53.994Z,18.27
2023-05-12T16:31:27.131Z,18.21
2023-05-12T16:33:59.006Z,18.06
2023-05-12T16:36:32.062Z,17.95
2023-05-12T16:39:06.879Z,17.98
2023-05-12T16:41:39.060Z,17.88
2023-05-12T16:44:10.904Z,17.72
2023-05-12T16:46:45.539Z,17.63
2023-05-12T16:49:17.305Z,17.66
2023-05-12T16:51:50.136Z,17.58
2023-05-12T16:54:22.096Z,17.47
2023-05-12T16:56:53.888Z,17.34
2023-05-12T16:59:25.677Z,17.30
2023-05-12T17:01:57.528Z,17.25
2023-05-12T17:04:29.387Z,17.28
2023-05-12T17:07:01.244Z,17.17
2023-05-12T17:09:33.029Z,17.14
2023-05-12T17:12:06.755Z,17.05
2023-05-12T17:14:40.697Z,16.97
2023-05-12T17:17:13.855Z,16.90
2023-05-12T17:19:46.301Z,16.93
2023-05-12T17:22:21.434Z,16.94
2023-05-12T17:24:55.825Z,16.88
2023-05-12T17:27:27.845Z,16.84
2023-05-12T17:30:01.082Z,16.82
2023-05-12T17:32:32.976Z,16.79
2023-05-12T17:35:05.347Z,16.78
2023-05-12T17:37:38.507Z,16.81
2023-05-12T17:40:16.618Z,16.78
2023-05-12T17:42:50.141Z,16.74
2023-05-12T17:45:24.575Z,16.62
2023-05-12T17:47:56.851Z,16.54
2023-05-12T17:50:37.124Z,16.43
2023-05-12T17:53:10.926Z,16.43
2023-05-12T17:55:42.803Z,16.43
2023-05-12T17:58:14.865Z,16.49
2023-05-12T18:00:47.340Z,16.47
2023-05-12T18:03:23.558Z,16.55
2023-05-12T18:05:56.298Z,16.47
2023-05-12T18:08:28.430Z,16.39
2023-05-12T18:11:00.199Z,16.31
2023-05-12T18:13:32.117Z,16.17
2023-05-12T18:16:04.034Z,16.06
2023-05-12T18:18:35.836Z,16.01
2023-05-12T18:21:07.629Z,16.02
2023-05-12T18:23:39.356Z,15.79
2023-05-12T18:26:14.565Z,15.70
2023-05-12T18:28:46.418Z,15.62
2023-05-12T18:31:21.482Z,15.61
2023-05-12T18:33:59.420Z,15.51
2023-05-12T18:36:31.477Z,15.43
2023-05-12T18:39:04.437Z,15.44
2023-05-12T18:41:43.697Z,15.38
2023-05-12T18:44:15.501Z,15.34
2023-05-12T18:46:47.697Z,15.37
2023-05-12T18:49:19.481Z,15.31
2023-05-12T18:51:54.149Z,15.33
2023-05-12T18:54:25.872Z,15.34
2023-05-12T18:56:57.747Z,15.32
2023-05-12T18:59:31.431Z,15.28
2023-05-12T19:02:06.455Z,15.19
2023-05-12T19:04:41.370Z,15.19
2023-05-12T19:07:15.856Z,15.12
2023-05-12T19:09:47.626Z,15.11
2023-05-12T19:12:19.464Z,15.05
2023-05-12T19:14:51.367Z,15.05
2023-05-12T19:17:23.329Z,15.01
2023-05-12T19:19:55.308Z,14.92
2023-05-12T19:22:30.211Z,14.90
2023-05-12T19:25:04.124Z,14.90
2023-05-12T19:27:36.405Z,14.87
2023-05-12T19:30:08.498Z,14.86
2023-05-12T19:32:42.531Z,14.81
2023-05-12T19:35:15.157Z,14.84
2023-05-12T19:37:47.161Z,14.82
2023-05-12T19:40:19.017Z,14.80
2023-05-12T19:42:52.769Z,14.75
2023-05-12T19:45:24.638Z,14.75
2023-05-12T19:47:57.146Z,14.75
2023-05-12T19:50:32.192Z,14.74
2023-05-12T19:53:04.012Z,14.69
2023-05-12T19:55:36.629Z,14.72
2023-05-12T19:58:08.925Z,14.72
2023-05-12T20:00:42.286Z,14.74
2023-05-12T20:03:16.413Z,14.73
2023-05-12T20:05:48.708Z,14.70
2023-05-12T20:08:23.566Z,14.69
2023-05-12T20:10:55.452Z,14.65
2023-05-12T20:13:29.168Z,14.64
2023-05-12T20:16:01.004Z,14.56
2023-05-12T20:18:35.884Z,14.55
2023-05-12T20:21:07.717Z,14.56
2023-05-12T20:23:40.583Z,14.54
2023-05-12T20:26:16.535Z,14.56
2023-05-12T20:28:49.421Z,14.54
2023-05-12T20:31:21.367Z,14.57
2023-05-12T20:33:56.580Z,14.53
2023-05-12T20:36:49.155Z,14.52
2023-05-12T20:39:21.003Z,14.49
2023-05-12T20:41:52.739Z,14.50
2023-05-12T20:44:34.429Z,14.49
2023-05-12T20:47:06.450Z,14.56
2023-05-12T20:49:38.608Z,14.60
2023-05-12T20:52:13.219Z,14.64
2023-05-12T20:54:44.858Z,14.61
2023-05-12T20:57:16.561Z,14.59
2023-05-12T20:59:48.683Z,14.55
2023-05-12T21:02:24.952Z,14.59
2023-05-12T21:04:57.012Z,14.60
2023-05-12T21:07:30.795Z,14.56
2023-05-12T21:10:03.831Z,14.54
2023-05-12T21:12:36.486Z,14.51
2023-05-12T21:15:10.552Z,14.49
2023-05-12T21:17:42.474Z,14.47
2023-05-12T21:20:17.157Z,14.45
2023-05-12T21:22:49.236Z,14.44
2023-05-12T21:25:21.700Z,14.42
2023-05-12T21:27:56.056Z,14.45
2023-05-12T21:30:33.080Z,14.45
2023-05-12T21:33:06.656Z,14.41
2023-05-12T21:35:38.411Z,14.41
2023-05-12T21:38:13.476Z,14.47
2023-05-12T21:40:52.650Z,14.49
2023-05-12T21:43:27.302Z,14.50
2023-05-12T21:46:05.371Z,14.56
2023-05-12T21:48:37.094Z,14.58
2023-05-12T21:51:09.091Z,14.62
2023-05-12T21:53:43.809Z,14.63
2023-05-12T21:56:15.692Z,14.61
2023-05-12T21:58:48.578Z,14.61
2023-05-12T22:01:20.514Z,14.64
2023-05-12T22:03:52.376Z,14.63
2023-05-12T22:06:24.184Z,14.64
2023-05-12T22:08:55.931Z,14.65
2023-05-12T22:11:27.663Z,14.64
2023-05-12T22:13:59.552Z,14.67
2023-05-12T22:16:41.327Z,14.70
2023-05-12T22:19:13.859Z,14.78
2023-05-12T22:21:49.836Z,14.72
2023-05-12T22:24:24.637Z,14.66
2023-05-12T22:26:58.401Z,14.67
2023-05-12T22:29:30.168Z,14.64
2023-05-12T22:32:02.008Z,14.62
2023-05-12T22:34:33.749Z,14.58
2023-05-12T22:37:05.788Z,14.56
2023-05-12T22:39:40.372Z,14.49
2023-05-12T22:42:14.132Z,14.38
2023-05-12T22:44:48.501Z,14.27
2023-05-12T22:47:20.257Z,14.22
2023-05-12T22:49:52.137Z,14.25
2023-05-12T22:52:27.262Z,14.30
2023-05-12T22:54:58.954Z,14.31
2023-05-12T22:57:30.687Z,14.30
2023-05-12T23:00:03.713Z,14.32
2023-05-12T23:02:35.655Z,14.33
2023-05-12T23:05:10.766Z,14.38
2023-05-12T23:07:42.583Z,14.37
2023-05-12T23:10:17.182Z,14.30
2023-05-12T23:12:50.981Z,14.27
2023-05-12T23:15:22.637Z,14.30
2023-05-12T23:17:56.837Z,14.27
2023-05-12T23:20:28.750Z,14.28
2023-05-12T23:23:00.998Z,14.32
2023-05-12T23:25:36.328Z,14.33
2023-05-12T23:28:08.155Z,14.27
2023-05-12T23:30:39.973Z,14.27
2023-05-12T23:33:11.898Z,14.26
2023-05-12T23:35:44.025Z,14.27
2023-05-12T23:38:15.790Z,14.25
2023-05-12T23:40:47.614Z,14.30
2023-05-12T23:43:19.528Z,14.33
2023-05-12T23:45:51.258Z,14.32
2023-05-12T23:48:23.412Z,14.33
2023-05-12T23:50:55.135Z,14.30
2023-05-12T23:53:26.839Z,14.31
2023-05-12T23:55:58.567Z,14.24
2023-05-12T23:58:33.004Z,14.10
